Terminal Aerodrome Forecast
Issued by NWS

Home | Current Version | Previous Version | Text Only | Print | Product List | Glossary On
Versions: 1 2 3 4 5 6 7 8 9 10 11 12 13 14 15 16
000
FTUS41 KAKQ 292331
TAFPHF
TAF
KPHF 292331Z 3000/3024 12007KT P6SM SCT015 BKN050
     FM300300 16004KT 4SM BR OVC015
     FM300600 18003KT 4SM BR OVC005
     FM301200 VRB05KT 5SM -RA BR OVC007
     FM301700 10007KT 6SM BR BKN010 OVC025=

USA.gov is the U.S. government's official web portal to all federal, state and local government web resources and services.